createdAt,value
2019-02-08T00:00:38.945Z,7.70
2019-02-08T00:03:07.875Z,7.70
2019-02-08T00:05:36.656Z,7.80
2019-02-08T00:08:05.887Z,7.80
2019-02-08T00:10:34.556Z,7.80
2019-02-08T00:13:03.299Z,7.80
2019-02-08T00:15:32.099Z,7.80
2019-02-08T00:18:00.780Z,7.80
2019-02-08T00:20:29.446Z,7.90
2019-02-08T00:22:58.147Z,7.90
2019-02-08T00:25:26.847Z,7.90
2019-02-08T00:27:56.181Z,7.80
2019-02-08T00:30:25.779Z,7.80
2019-02-08T00:32:54.569Z,7.80
2019-02-08T00:35:23.282Z,7.80
2019-02-08T00:37:52.025Z,7.90
2019-02-08T00:40:25.036Z,7.90
2019-02-08T00:42:54.760Z,7.90
2019-02-08T00:45:24.424Z,7.80
2019-02-08T00:47:53.134Z,7.80
2019-02-08T00:50:30.200Z,7.90
2019-02-08T00:52:58.939Z,8.00
2019-02-08T00:55:27.710Z,8.00
2019-02-08T00:57:57.046Z,8.00
2019-02-08T01:00:26.247Z,8.10
2019-02-08T01:02:55.936Z,8.00
2019-02-08T01:05:30.249Z,8.00
2019-02-08T01:07:58.924Z,7.90
2019-02-08T01:10:30.099Z,7.80
2019-02-08T01:13:00.027Z,7.90
2019-02-08T01:15:30.712Z,8.10
2019-02-08T01:17:59.435Z,8.00
2019-02-08T01:20:28.270Z,7.80
2019-02-08T01:22:56.964Z,7.80
2019-02-08T01:25:30.193Z,8.00
2019-02-08T01:27:59.353Z,8.00
2019-02-08T01:30:30.437Z,8.00
2019-02-08T01:32:59.656Z,8.00
2019-02-08T01:35:28.373Z,8.10
2019-02-08T01:37:58.565Z,8.00
2019-02-08T01:40:29.730Z,8.10
2019-02-08T01:42:59.549Z,8.10
2019-02-08T01:45:32.899Z,8.10
2019-02-08T01:48:01.889Z,8.20
2019-02-08T01:50:31.414Z,8.10
2019-02-08T01:53:00.306Z,8.30
2019-02-08T01:55:29.030Z,8.20
2019-02-08T01:57:57.892Z,8.30
2019-02-08T02:00:41.562Z,8.20
2019-02-08T02:03:10.998Z,8.20
2019-02-08T02:05:39.829Z,8.30
2019-02-08T02:08:10.140Z,8.40
2019-02-08T02:10:44.153Z,8.40
2019-02-08T02:13:13.632Z,8.20
2019-02-08T02:15:42.429Z,8.30
2019-02-08T02:18:12.654Z,8.40
2019-02-08T02:20:42.938Z,8.40
2019-02-08T02:23:14.098Z,8.50
2019-02-08T02:25:50.116Z,8.50
2019-02-08T02:28:18.697Z,8.40
2019-02-08T02:30:47.529Z,8.40
2019-02-08T02:33:16.298Z,8.40
2019-02-08T02:35:50.868Z,8.40
2019-02-08T02:38:26.254Z,8.50
2019-02-08T02:40:56.737Z,8.30
2019-02-08T02:43:25.539Z,8.40
2019-02-08T02:45:54.292Z,8.50
2019-02-08T02:48:23.134Z,8.50
2019-02-08T02:50:51.854Z,8.30
2019-02-08T02:53:20.499Z,8.50
2019-02-08T02:55:49.072Z,8.40
2019-02-08T02:58:17.776Z,8.40
2019-02-08T03:00:47.985Z,8.50
2019-02-08T03:03:16.862Z,8.40
2019-02-08T03:05:46.258Z,8.40
2019-02-08T03:08:16.332Z,8.50
2019-02-08T03:10:45.749Z,8.50
2019-02-08T03:13:14.642Z,8.40
2019-02-08T03:15:43.439Z,8.40
2019-02-08T03:18:13.710Z,8.40
2019-02-08T03:20:42.424Z,8.30
2019-02-08T03:23:11.226Z,8.30
2019-02-08T03:25:40.106Z,8.30
2019-02-08T03:28:08.871Z,8.30
2019-02-08T03:30:45.152Z,8.20
2019-02-08T03:33:13.883Z,8.20
2019-02-08T03:35:42.595Z,8.20
2019-02-08T03:38:11.732Z,8.20
2019-02-08T03:40:40.338Z,8.30
2019-02-08T03:43:08.919Z,8.40
2019-02-08T03:45:42.471Z,8.30
2019-02-08T03:48:11.679Z,8.40
2019-02-08T03:50:40.468Z,8.40
2019-02-08T03:53:09.767Z,8.40
2019-02-08T03:55:39.034Z,8.30
2019-02-08T03:58:08.219Z,8.40
2019-02-08T04:00:41.435Z,8.30
2019-02-08T04:03:10.116Z,8.40
2019-02-08T04:05:38.933Z,8.40
2019-02-08T04:08:07.654Z,8.50
2019-02-08T04:10:36.230Z,8.50
2019-02-08T04:13:05.218Z,8.40
2019-02-08T04:15:34.068Z,8.40
2019-02-08T04:18:02.766Z,8.30
2019-02-08T04:20:31.471Z,8.40
2019-02-08T04:23:00.199Z,8.40
2019-02-08T04:25:28.818Z,8.40
2019-02-08T04:27:57.528Z,8.40
2019-02-08T04:30:31.077Z,8.30
2019-02-08T04:33:02.078Z,8.30
2019-02-08T04:35:30.814Z,8.20
2019-02-08T04:37:59.550Z,8.30
2019-02-08T04:40:29.302Z,8.30
2019-02-08T04:42:58.130Z,8.30
2019-02-08T04:45:26.843Z,8.20
2019-02-08T04:47:55.741Z,8.20
2019-02-08T04:50:28.458Z,8.30
2019-02-08T04:52:57.577Z,8.30
2019-02-08T04:55:26.573Z,8.40
2019-02-08T04:57:55.390Z,8.40
2019-02-08T05:00:35.300Z,8.30
2019-02-08T05:03:05.298Z,8.30
2019-02-08T05:05:34.047Z,8.20
2019-02-08T05:08:02.805Z,8.30
2019-02-08T05:10:33.699Z,8.30
2019-02-08T05:13:02.419Z,8.30
2019-02-08T05:15:32.648Z,8.20
2019-02-08T05:18:01.340Z,8.20
2019-02-08T05:20:31.711Z,8.20
2019-02-08T05:23:00.446Z,8.20
2019-02-08T05:25:29.137Z,8.20
2019-02-08T05:27:57.838Z,8.30
2019-02-08T05:30:32.054Z,8.40
2019-02-08T05:33:00.862Z,8.30
2019-02-08T05:35:29.561Z,8.30
2019-02-08T05:37:58.274Z,8.30
2019-02-08T05:40:26.977Z,8.30
2019-02-08T05:42:55.658Z,8.30
2019-02-08T05:45:26.010Z,8.40
2019-02-08T05:47:54.699Z,8.40
2019-02-08T05:50:28.103Z,8.40
2019-02-08T05:52:57.327Z,8.40
2019-02-08T05:55:30.910Z,8.30
2019-02-08T05:57:59.875Z,8.30
2019-02-08T06:00:35.574Z,8.30
2019-02-08T06:03:04.978Z,8.30
2019-02-08T06:05:33.774Z,8.20
2019-02-08T06:08:02.571Z,8.20
2019-02-08T06:10:31.438Z,8.30
2019-02-08T06:13:00.434Z,8.30
2019-02-08T06:15:29.292Z,8.30
2019-02-08T06:17:57.986Z,8.20
2019-02-08T06:20:43.145Z,8.20
2019-02-08T06:23:11.991Z,8.30
2019-02-08T06:25:40.815Z,8.30
2019-02-08T06:28:54.902Z,8.30
2019-02-08T06:31:22.474Z,8.30
2019-02-08T06:33:51.256Z,8.30
2019-02-08T06:36:22.831Z,8.40
2019-02-08T06:38:51.485Z,8.30
2019-02-08T06:41:20.363Z,8.30
2019-02-08T06:43:49.005Z,8.30
2019-02-08T06:46:17.977Z,8.30
2019-02-08T06:48:46.812Z,8.40
2019-02-08T06:51:15.529Z,8.40
2019-02-08T06:53:44.182Z,8.40
2019-02-08T06:56:14.458Z,8.50
2019-02-08T06:58:47.230Z,8.50
2019-02-08T07:01:26.336Z,8.50
2019-02-08T07:03:56.546Z,8.50
2019-02-08T07:06:32.633Z,8.50
2019-02-08T07:09:05.943Z,8.50
2019-02-08T07:11:38.990Z,8.60
2019-02-08T07:14:18.487Z,8.60
2019-02-08T07:16:51.860Z,8.60
2019-02-08T07:19:38.537Z,8.60
2019-02-08T07:22:12.403Z,8.70
2019-02-08T07:28:12.553Z,8.70
2019-02-08T07:30:49.166Z,8.60
2019-02-08T07:33:25.736Z,8.70
2019-02-08T07:35:56.282Z,8.60
2019-02-08T07:38:27.901Z,8.60
2019-02-08T07:41:09.393Z,8.70
2019-02-08T07:43:48.047Z,8.70
2019-02-08T07:46:33.586Z,8.70
2019-02-08T07:49:11.438Z,8.70
2019-02-08T07:51:41.890Z,8.70
2019-02-08T07:54:30.728Z,8.70
2019-02-08T07:57:19.542Z,8.70
2019-02-08T08:02:42.639Z,8.80
2019-02-08T08:05:20.156Z,8.80
2019-02-08T08:08:04.286Z,8.80
2019-02-08T08:10:34.766Z,8.80
2019-02-08T08:13:09.568Z,8.80
2019-02-08T08:15:46.936Z,8.90
2019-02-08T08:18:24.382Z,8.90
2019-02-08T08:21:11.308Z,9.00
2019-02-08T08:23:43.047Z,9.00
2019-02-08T08:26:16.088Z,9.10
2019-02-08T08:29:14.803Z,9.10
2019-02-08T08:34:49.874Z,9.10
2019-02-08T08:37:54.363Z,9.00
2019-02-08T08:40:42.559Z,9.10
2019-02-08T08:43:16.903Z,9.10
2019-02-08T08:46:07.948Z,9.20
2019-02-08T08:48:45.225Z,9.10
2019-02-08T08:51:35.466Z,9.20
2019-02-08T08:54:43.224Z,9.30
2019-02-08T08:57:36.981Z,9.30
2019-02-08T09:00:26.174Z,9.20
2019-02-08T09:03:06.710Z,9.30
2019-02-08T09:10:02.261Z,9.40
2019-02-08T09:12:39.751Z,9.40
2019-02-08T09:15:26.669Z,9.50
2019-02-08T09:18:14.673Z,9.50
2019-02-08T09:21:03.098Z,9.50
2019-02-08T09:23:55.449Z,9.60
2019-02-08T09:26:52.606Z,9.50
2019-02-08T09:32:56.204Z,9.60
2019-02-08T09:36:03.209Z,9.50
2019-02-08T09:38:34.857Z,9.60
2019-02-08T09:41:20.959Z,9.60
2019-02-08T09:44:01.429Z,9.60
2019-02-08T09:46:53.778Z,9.70
2019-02-08T09:49:51.180Z,9.60
2019-02-08T09:52:42.147Z,9.60
2019-02-08T09:55:33.027Z,9.70
2019-02-08T09:58:21.253Z,9.70
2019-02-08T10:01:09.398Z,9.70
2019-02-08T10:04:01.535Z,9.70
2019-02-08T10:06:54.317Z,9.80
2019-02-08T10:09:42.455Z,9.80
2019-02-08T10:12:45.625Z,9.80
2019-02-08T10:18:41.193Z,9.90
2019-02-08T10:21:27.821Z,9.90
2019-02-08T10:24:27.996Z,9.80
2019-02-08T10:27:17.509Z,9.90
2019-02-08T10:29:55.581Z,9.90
2019-02-08T10:32:52.127Z,9.90
2019-02-08T10:38:57.661Z,10.00
2019-02-08T10:42:02.635Z,10.00
2019-02-08T10:44:37.305Z,10.10
2019-02-08T10:47:21.075Z,10.10
2019-02-08T10:50:13.947Z,10.10
2019-02-08T10:52:53.974Z,10.20
2019-02-08T10:55:45.055Z,10.30
2019-02-08T10:58:39.163Z,10.30
2019-02-08T11:01:29.979Z,10.30
2019-02-08T11:04:10.137Z,10.30
2019-02-08T11:09:47.204Z,10.30
2019-02-08T11:12:54.095Z,10.30
2019-02-08T11:15:45.769Z,10.40
2019-02-08T11:18:39.949Z,10.40
2019-02-08T11:21:08.981Z,10.40
2019-02-08T11:23:37.703Z,10.40
2019-02-08T11:26:07.894Z,10.40
2019-02-08T11:28:36.630Z,10.40
2019-02-08T11:31:05.735Z,10.50
2019-02-08T11:33:34.451Z,10.50
2019-02-08T11:36:03.691Z,10.50
2019-02-08T11:38:32.343Z,10.40
2019-02-08T11:41:01.099Z,10.40
2019-02-08T11:43:29.763Z,10.50
2019-02-08T11:45:58.540Z,10.60
2019-02-08T11:48:27.235Z,10.50
2019-02-08T11:50:55.921Z,10.60
2019-02-08T11:53:24.621Z,10.50
2019-02-08T11:55:53.231Z,10.60
2019-02-08T11:58:21.875Z,10.50
2019-02-08T12:00:52.278Z,10.60
2019-02-08T12:03:21.006Z,10.60
2019-02-08T12:05:49.719Z,10.60
2019-02-08T12:08:18.407Z,10.70
2019-02-08T12:10:47.033Z,10.70
2019-02-08T12:13:15.724Z,10.70
2019-02-08T12:15:44.705Z,10.80
2019-02-08T12:18:13.469Z,10.70
2019-02-08T12:20:42.190Z,10.70
2019-02-08T12:23:10.821Z,10.80
2019-02-08T12:25:39.441Z,10.80
2019-02-08T12:28:08.174Z,10.80
2019-02-08T12:30:39.575Z,10.80
2019-02-08T12:33:08.290Z,10.80
2019-02-08T12:35:37.036Z,10.80
2019-02-08T12:38:05.757Z,10.80
2019-02-08T12:40:34.563Z,10.80
2019-02-08T12:43:03.463Z,10.80
2019-02-08T12:45:32.117Z,10.90
2019-02-08T12:48:00.843Z,10.90
2019-02-08T12:50:29.570Z,10.90
2019-02-08T12:52:58.280Z,10.90
2019-02-08T12:55:26.994Z,10.80
2019-02-08T12:57:55.792Z,10.90
2019-02-08T13:00:26.461Z,10.90
2019-02-08T13:02:55.286Z,10.90
2019-02-08T13:05:24.150Z,10.90
2019-02-08T13:07:52.867Z,10.90
2019-02-08T13:10:29.973Z,11.00
2019-02-08T13:12:58.599Z,10.90
2019-02-08T13:15:27.299Z,10.90
2019-02-08T13:17:56.045Z,10.90
2019-02-08T13:20:25.375Z,10.90
2019-02-08T13:22:54.116Z,10.90
2019-02-08T13:25:22.905Z,11.00
2019-02-08T13:27:51.570Z,10.90
2019-02-08T13:30:29.287Z,10.90
2019-02-08T13:32:58.155Z,10.90
2019-02-08T13:35:28.796Z,11.00
2019-02-08T13:37:57.619Z,11.00
2019-02-08T13:40:28.886Z,11.00
2019-02-08T13:42:57.787Z,11.00
2019-02-08T13:45:26.787Z,11.00
2019-02-08T13:47:55.543Z,11.00
2019-02-08T13:50:32.109Z,11.00
2019-02-08T13:53:00.913Z,11.10
2019-02-08T13:55:29.663Z,11.10
2019-02-08T13:57:58.418Z,11.10
2019-02-08T14:00:30.057Z,11.00
2019-02-08T14:02:58.741Z,11.00
2019-02-08T14:05:27.573Z,11.00
2019-02-08T14:07:56.226Z,11.00
2019-02-08T14:10:24.925Z,10.90
2019-02-08T14:12:53.769Z,10.90
2019-02-08T14:15:24.835Z,10.90
2019-02-08T14:17:54.843Z,11.00
2019-02-08T14:20:29.203Z,11.00
2019-02-08T14:22:57.985Z,11.00
2019-02-08T14:25:26.677Z,11.00
2019-02-08T14:27:55.685Z,11.00
2019-02-08T14:30:26.977Z,11.00
2019-02-08T14:32:56.000Z,11.00
2019-02-08T14:35:28.175Z,11.00
2019-02-08T14:37:59.171Z,11.10
2019-02-08T14:40:29.586Z,11.00
2019-02-08T14:42:58.354Z,11.00
2019-02-08T14:45:27.023Z,11.00
2019-02-08T14:47:55.823Z,10.90
2019-02-08T14:50:31.993Z,11.00
2019-02-08T14:53:00.916Z,10.90
2019-02-08T14:55:31.883Z,10.90
2019-02-08T14:58:07.863Z,11.00
2019-02-08T15:00:36.753Z,11.00
2019-02-08T15:03:05.716Z,10.90
2019-02-08T15:05:37.577Z,10.90
2019-02-08T15:08:06.525Z,10.90
2019-02-08T15:10:47.169Z,10.90
2019-02-08T15:13:16.035Z,10.90
2019-02-08T15:15:44.729Z,11.00
2019-02-08T15:18:13.477Z,10.90
2019-02-08T15:20:42.194Z,10.90
2019-02-08T15:23:11.031Z,10.90
2019-02-08T15:25:39.711Z,10.80
2019-02-08T15:28:13.546Z,10.80
2019-02-08T15:30:42.373Z,10.80
2019-02-08T15:33:37.279Z,10.70
2019-02-08T15:36:08.089Z,10.70
2019-02-08T15:38:38.265Z,10.70
2019-02-08T15:41:37.123Z,10.70
2019-02-08T15:44:07.224Z,10.70
2019-02-08T15:46:38.590Z,10.70
2019-02-08T15:49:09.585Z,10.80
2019-02-08T15:51:38.146Z,10.80
2019-02-08T15:54:07.093Z,10.80
2019-02-08T15:56:35.941Z,10.70
2019-02-08T15:59:09.291Z,10.70
2019-02-08T16:01:38.143Z,10.80
2019-02-08T16:04:07.346Z,10.80
2019-02-08T16:06:38.315Z,10.80
2019-02-08T16:09:09.788Z,10.80
2019-02-08T16:11:38.540Z,10.70
2019-02-08T16:14:07.225Z,10.70
2019-02-08T16:16:36.021Z,10.70
2019-02-08T16:19:07.773Z,10.70
2019-02-08T16:21:37.736Z,10.70
2019-02-08T16:24:06.842Z,10.80
2019-02-08T16:26:35.541Z,10.70
2019-02-08T16:29:05.191Z,10.70
2019-02-08T16:31:36.763Z,10.60
2019-02-08T16:34:08.923Z,10.60
2019-02-08T16:36:37.967Z,10.70
2019-02-08T16:39:09.019Z,10.60
2019-02-08T16:41:37.679Z,10.70
2019-02-08T16:44:06.772Z,10.70
2019-02-08T16:46:35.466Z,10.70
2019-02-08T16:49:08.610Z,10.70
2019-02-08T16:51:37.481Z,10.70
2019-02-08T16:54:07.797Z,10.80
2019-02-08T16:56:36.571Z,10.80
2019-02-08T16:59:11.404Z,10.80
2019-02-08T17:01:40.097Z,10.90
2019-02-08T17:04:08.967Z,10.80
2019-02-08T17:06:39.756Z,10.80
2019-02-08T17:09:18.583Z,10.90
2019-02-08T17:11:52.926Z,10.90
2019-02-08T17:14:34.489Z,10.80
2019-02-08T17:17:03.337Z,10.90
2019-02-08T17:19:32.124Z,10.80
2019-02-08T17:22:02.645Z,10.80
2019-02-08T17:24:47.867Z,10.80
2019-02-08T17:27:08.874Z,10.80
2019-02-08T17:29:42.818Z,10.80
2019-02-08T17:32:19.067Z,10.80
2019-02-08T17:34:55.261Z,10.80
2019-02-08T17:37:30.588Z,10.80
2019-02-08T17:40:06.842Z,10.80
2019-02-08T17:42:46.604Z,10.80
2019-02-08T17:45:27.408Z,10.70
2019-02-08T17:48:16.265Z,10.80
2019-02-08T17:50:45.592Z,10.70
2019-02-08T17:53:37.884Z,10.80
2019-02-08T17:56:09.925Z,10.80
2019-02-08T17:58:46.562Z,10.70
2019-02-08T18:01:19.928Z,10.80
2019-02-08T18:03:52.692Z,10.80
2019-02-08T18:06:30.189Z,10.80
2019-02-08T18:09:05.896Z,10.70
2019-02-08T18:14:30.673Z,10.80
2019-02-08T18:17:01.271Z,10.70
2019-02-08T18:19:34.479Z,10.70
2019-02-08T18:22:56.898Z,10.70
2019-02-08T18:56:49.224Z,10.70
2019-02-08T19:04:35.223Z,10.80
2019-02-08T19:16:44.182Z,10.60
2019-02-08T19:19:33.322Z,10.70
2019-02-08T19:59:27.872Z,10.30
2019-02-08T20:02:12.300Z,10.30
2019-02-08T20:04:46.008Z,10.30
2019-02-08T20:25:50.701Z,10.10
2019-02-08T20:28:32.897Z,10.00
2019-02-08T20:31:03.776Z,10.00
2019-02-08T20:33:34.465Z,10.00
2019-02-08T20:36:18.638Z,10.00
2019-02-08T20:38:49.262Z,9.90
2019-02-08T20:41:41.200Z,9.90
2019-02-08T20:44:13.014Z,10.00
2019-02-08T20:46:45.314Z,9.90
2019-02-08T20:49:27.630Z,10.00
2019-02-08T20:51:58.080Z,9.90
2019-02-08T20:54:32.580Z,9.90
2019-02-08T20:57:00.701Z,9.90
2019-02-08T20:59:29.404Z,9.90
2019-02-08T21:01:59.829Z,9.90
2019-02-08T21:04:30.596Z,9.80
2019-02-08T21:06:59.415Z,9.80
2019-02-08T21:09:28.189Z,9.80
2019-02-08T21:11:58.524Z,9.80
2019-02-08T21:14:28.960Z,9.80
2019-02-08T21:16:57.818Z,9.80
2019-02-08T21:19:26.624Z,9.80
2019-02-08T21:21:55.884Z,9.80
2019-02-08T21:24:24.547Z,9.80
2019-02-08T21:26:55.034Z,9.80
2019-02-08T21:29:23.934Z,9.80
2019-02-08T21:31:58.446Z,9.80
2019-02-08T21:34:28.758Z,9.70
2019-02-08T21:36:57.646Z,9.70
2019-02-08T21:39:26.366Z,9.70
2019-02-08T21:41:56.426Z,9.70
2019-02-08T21:44:25.130Z,9.70
2019-02-08T21:46:53.916Z,9.70
2019-02-08T21:49:22.780Z,9.70
2019-02-08T21:51:51.588Z,9.70
2019-02-08T21:54:20.266Z,9.70
2019-02-08T21:56:49.012Z,9.70
2019-02-08T21:59:17.786Z,9.70
2019-02-08T22:01:46.574Z,9.80
2019-02-08T22:04:15.382Z,9.80
2019-02-08T22:06:44.150Z,9.80
2019-02-08T22:09:12.916Z,9.70
2019-02-08T22:11:41.694Z,9.80
2019-02-08T22:14:10.403Z,9.80
2019-02-08T22:16:39.052Z,9.80
2019-02-08T22:19:07.882Z,9.80
2019-02-08T22:21:36.686Z,9.80
2019-02-08T22:24:05.402Z,9.80
2019-02-08T22:26:34.116Z,9.90
2019-02-08T22:29:02.738Z,9.90
2019-02-08T22:31:31.605Z,9.90
2019-02-08T22:34:00.243Z,9.90
2019-02-08T22:36:28.874Z,9.90
2019-02-08T22:38:57.494Z,10.00
2019-02-08T22:41:26.292Z,10.00
2019-02-08T22:43:54.886Z,10.00
2019-02-08T22:46:23.509Z,10.00
2019-02-08T22:48:52.224Z,10.00
2019-02-08T22:51:20.776Z,10.10
2019-02-08T22:53:49.346Z,10.00
2019-02-08T22:56:18.088Z,10.00
2019-02-08T22:58:46.660Z,10.00
2019-02-08T23:01:26.646Z,10.00
2019-02-08T23:03:55.340Z,10.10
2019-02-08T23:06:24.148Z,10.00
2019-02-08T23:08:52.892Z,10.00
2019-02-08T23:11:21.587Z,10.00
2019-02-08T23:13:50.218Z,10.00
2019-02-08T23:16:18.799Z,9.90
2019-02-08T23:18:47.640Z,9.90
2019-02-08T23:21:16.796Z,9.90
2019-02-08T23:23:45.530Z,9.90
2019-02-08T23:26:14.208Z,9.90
2019-02-08T23:28:42.928Z,9.80
2019-02-08T23:31:11.665Z,9.80
2019-02-08T23:33:40.274Z,9.80
2019-02-08T23:36:09.001Z,9.80
2019-02-08T23:38:37.722Z,9.70
2019-02-08T23:41:06.336Z,9.60
2019-02-08T23:43:35.040Z,9.60
2019-02-08T23:46:03.798Z,9.60
2019-02-08T23:48:32.444Z,9.60
2019-02-08T23:51:01.144Z,9.60
2019-02-08T23:53:29.888Z,9.50
2019-02-08T23:55:58.513Z,9.50
2019-02-08T23:58:27.178Z,9.40
